createdAt,value
2022-08-29T00:01:07.196Z,86.03
2022-08-29T00:03:37.085Z,88.12
2022-08-29T00:06:07.127Z,88.18
2022-08-29T00:08:37.025Z,87.79
2022-08-29T00:11:08.215Z,87.00
2022-08-29T00:13:38.131Z,86.26
2022-08-29T00:16:09.070Z,85.77
2022-08-29T00:18:39.190Z,85.42
2022-08-29T00:21:09.417Z,85.31
2022-08-29T00:23:39.859Z,85.16
2022-08-29T00:26:09.696Z,84.74
2022-08-29T00:28:39.549Z,84.30
2022-08-29T00:31:09.595Z,83.64
2022-08-29T00:33:39.619Z,83.44
2022-08-29T00:36:10.337Z,83.57
2022-08-29T00:38:40.222Z,83.68
2022-08-29T00:41:11.875Z,83.80
2022-08-29T00:43:41.742Z,84.03
2022-08-29T00:46:18.079Z,84.21
2022-08-29T00:48:47.981Z,84.52
2022-08-29T00:51:20.521Z,84.83
2022-08-29T00:53:51.754Z,85.05
2022-08-29T00:56:21.698Z,85.10
2022-08-29T00:58:53.702Z,85.43
2022-08-29T01:01:24.368Z,85.78
2022-08-29T01:03:54.219Z,86.68
2022-08-29T01:06:24.233Z,87.48
2022-08-29T01:08:57.689Z,88.04
2022-08-29T01:11:45.990Z,88.54
2022-08-29T01:14:15.938Z,88.82
2022-08-29T01:16:46.061Z,89.43
2022-08-29T01:19:32.221Z,89.61
2022-08-29T01:22:04.731Z,89.76
2022-08-29T01:24:36.334Z,89.85
2022-08-29T01:27:06.233Z,90.02
2022-08-29T01:29:36.422Z,90.00
2022-08-29T01:32:06.722Z,89.76
2022-08-29T01:34:36.619Z,89.72
2022-08-29T01:37:06.789Z,89.87
2022-08-29T01:39:37.689Z,89.89
2022-08-29T01:42:10.406Z,90.07
2022-08-29T01:44:40.461Z,90.09
2022-08-29T01:47:11.672Z,90.08
2022-08-29T01:49:41.848Z,90.12
2022-08-29T01:52:13.044Z,90.25
2022-08-29T01:54:43.545Z,90.45
2022-08-29T01:57:13.608Z,90.59
2022-08-29T01:59:43.544Z,90.76
2022-08-29T02:02:15.888Z,91.05
2022-08-29T02:04:47.444Z,91.42
2022-08-29T02:07:18.945Z,91.92
2022-08-29T02:09:48.851Z,92.20
2022-08-29T02:12:18.644Z,92.51
2022-08-29T02:14:48.493Z,92.64
2022-08-29T02:17:18.450Z,92.86
2022-08-29T02:19:48.339Z,93.00
2022-08-29T02:22:18.670Z,93.06
2022-08-29T02:24:48.502Z,93.39
2022-08-29T02:27:18.232Z,93.62
2022-08-29T02:29:48.260Z,93.85
2022-08-29T02:32:18.165Z,94.44
2022-08-29T02:34:48.683Z,94.74
2022-08-29T02:37:18.674Z,94.63
2022-08-29T02:39:49.071Z,94.69
2022-08-29T02:42:18.785Z,95.00
2022-08-29T02:44:48.658Z,94.92
2022-08-29T02:47:18.687Z,94.86
2022-08-29T02:49:49.042Z,95.35
2022-08-29T02:52:19.085Z,95.09
2022-08-29T02:54:48.995Z,95.55
2022-08-29T02:57:18.714Z,96.33
2022-08-29T02:59:48.538Z,96.90
2022-08-29T03:02:18.555Z,96.99
2022-08-29T03:04:48.354Z,96.58
2022-08-29T03:07:18.221Z,96.79
2022-08-29T03:09:48.188Z,96.42
2022-08-29T03:12:18.074Z,96.14
2022-08-29T03:14:47.895Z,95.89
2022-08-29T03:17:18.079Z,95.49
2022-08-29T03:19:48.003Z,95.26
2022-08-29T03:22:18.401Z,95.41
2022-08-29T03:24:48.245Z,95.48
2022-08-29T03:27:18.576Z,95.41
2022-08-29T03:29:48.577Z,95.26
2022-08-29T03:32:18.680Z,94.94
2022-08-29T03:34:48.685Z,94.69
2022-08-29T03:37:18.770Z,94.65
2022-08-29T03:39:48.770Z,94.53
2022-08-29T03:42:18.734Z,94.77
2022-08-29T03:44:48.695Z,94.85
2022-08-29T03:47:18.595Z,94.67
2022-08-29T03:49:48.627Z,94.46
2022-08-29T03:52:18.655Z,94.38
2022-08-29T03:54:48.796Z,94.43
2022-08-29T03:57:18.813Z,94.44
2022-08-29T03:59:54.057Z,94.51
2022-08-29T04:02:24.671Z,94.42
2022-08-29T04:05:10.302Z,94.29
2022-08-29T04:07:41.281Z,94.00
2022-08-29T04:10:11.813Z,93.69
2022-08-29T04:12:41.782Z,93.44
2022-08-29T04:15:12.067Z,93.06
2022-08-29T04:17:52.680Z,92.68
2022-08-29T04:20:25.416Z,92.33
2022-08-29T04:22:55.690Z,91.90
2022-08-29T04:25:26.351Z,91.50
2022-08-29T04:27:56.201Z,91.31
2022-08-29T04:30:26.231Z,90.98
2022-08-29T04:32:56.077Z,90.86
2022-08-29T04:35:26.083Z,90.67
2022-08-29T04:37:56.110Z,90.49
2022-08-29T04:40:26.314Z,90.20
2022-08-29T04:42:56.267Z,90.04
2022-08-29T04:45:26.707Z,89.94
2022-08-29T04:47:58.917Z,89.91
2022-08-29T04:50:30.683Z,89.33
2022-08-29T04:53:00.934Z,89.29
2022-08-29T04:55:31.477Z,88.36
2022-08-29T04:58:01.698Z,88.61
2022-08-29T05:00:34.187Z,88.55
2022-08-29T05:03:04.055Z,88.36
2022-08-29T05:05:33.854Z,88.13
2022-08-29T05:08:04.443Z,88.00
2022-08-29T05:10:34.968Z,87.94
2022-08-29T05:13:05.083Z,87.80
2022-08-29T05:15:34.987Z,87.56
2022-08-29T05:18:05.028Z,85.51
2022-08-29T05:20:35.234Z,84.35
2022-08-29T05:23:05.095Z,83.96
2022-08-29T05:25:35.089Z,83.77
2022-08-29T05:28:05.176Z,82.96
2022-08-29T05:30:35.552Z,82.87
2022-08-29T05:33:05.457Z,82.37
2022-08-29T05:35:35.786Z,81.13
2022-08-29T05:38:15.112Z,81.01
2022-08-29T05:40:45.132Z,80.74
2022-08-29T05:43:14.889Z,80.41
2022-08-29T05:45:44.751Z,80.36
2022-08-29T05:48:17.671Z,80.06
2022-08-29T05:50:47.417Z,79.72
2022-08-29T05:53:19.199Z,79.26
2022-08-29T05:55:49.024Z,79.04
2022-08-29T05:58:19.883Z,79.00
2022-08-29T06:00:50.377Z,78.76
2022-08-29T06:03:20.387Z,78.14
2022-08-29T06:05:52.653Z,78.35
2022-08-29T06:08:22.465Z,78.92
2022-08-29T06:10:52.432Z,79.47
2022-08-29T06:13:22.404Z,79.82
2022-08-29T06:15:52.354Z,79.73
2022-08-29T06:18:22.924Z,79.69
2022-08-29T06:21:07.039Z,79.57
2022-08-29T06:23:36.835Z,79.22
2022-08-29T06:26:06.863Z,79.21
2022-08-29T06:28:37.782Z,78.55
2022-08-29T06:31:08.637Z,77.99
2022-08-29T06:33:38.651Z,77.39
2022-08-29T06:36:09.078Z,76.80
2022-08-29T06:38:38.934Z,76.02
2022-08-29T06:41:09.687Z,75.50
2022-08-29T06:43:39.504Z,74.12
2022-08-29T06:46:09.446Z,72.97
2022-08-29T06:48:39.269Z,72.91
2022-08-29T06:51:09.145Z,71.87
2022-08-29T06:53:39.099Z,71.43
2022-08-29T06:56:11.203Z,70.09
2022-08-29T06:58:41.561Z,69.04
2022-08-29T07:01:11.567Z,68.47
2022-08-29T07:03:41.408Z,67.69
2022-08-29T07:06:11.256Z,65.98
2022-08-29T07:08:55.452Z,64.44
2022-08-29T07:11:26.151Z,63.91
2022-08-29T07:13:58.503Z,65.11
2022-08-29T07:16:28.270Z,63.20
2022-08-29T07:18:57.996Z,62.54
2022-08-29T07:21:28.086Z,61.73
2022-08-29T07:23:58.500Z,60.25
2022-08-29T07:26:29.774Z,58.60
2022-08-29T07:29:00.284Z,58.40
2022-08-29T07:31:36.202Z,57.94
2022-08-29T07:34:06.206Z,57.00
2022-08-29T07:36:36.283Z,55.15
2022-08-29T07:39:06.867Z,53.31
2022-08-29T07:41:36.752Z,52.67
2022-08-29T07:44:06.845Z,52.18
2022-08-29T07:46:37.028Z,51.69
2022-08-29T07:49:06.899Z,51.67
2022-08-29T07:51:37.099Z,51.60
2022-08-29T07:54:11.483Z,51.22
2022-08-29T07:56:42.214Z,51.30
2022-08-29T07:59:12.149Z,51.37
2022-08-29T08:01:42.457Z,51.29
2022-08-29T08:04:12.497Z,50.64
2022-08-29T08:06:43.566Z,49.87
2022-08-29T08:09:14.474Z,49.71
2022-08-29T08:11:44.620Z,49.04
2022-08-29T08:14:14.632Z,48.33
2022-08-29T08:16:44.839Z,47.97
2022-08-29T08:19:15.700Z,47.20
2022-08-29T08:21:49.923Z,44.35
2022-08-29T08:24:20.280Z,42.21
2022-08-29T08:26:50.431Z,41.63
2022-08-29T08:29:20.346Z,40.46
2022-08-29T08:31:51.251Z,40.21
2022-08-29T08:34:21.490Z,39.58
2022-08-29T08:36:51.770Z,39.59
2022-08-29T08:39:22.407Z,39.61
2022-08-29T08:41:54.128Z,38.67
2022-08-29T08:44:43.573Z,37.47
2022-08-29T08:47:15.884Z,37.68
2022-08-29T08:49:46.098Z,37.57
2022-08-29T08:52:17.433Z,38.10
2022-08-29T08:54:48.334Z,36.62
2022-08-29T08:57:18.621Z,35.55
2022-08-29T08:59:50.331Z,34.98
2022-08-29T09:02:27.813Z,34.68
2022-08-29T09:04:58.935Z,35.13
2022-08-29T09:07:33.666Z,35.24
2022-08-29T09:10:11.145Z,34.60
2022-08-29T09:12:43.531Z,33.69
2022-08-29T09:15:14.216Z,32.98
2022-08-29T09:17:45.453Z,33.40
2022-08-29T09:20:15.652Z,34.05
2022-08-29T09:22:47.105Z,33.79
2022-08-29T09:25:17.058Z,33.57
2022-08-29T09:27:50.199Z,34.08
2022-08-29T09:30:22.330Z,34.69
2022-08-29T09:32:56.835Z,34.36
2022-08-29T09:35:27.220Z,34.46
2022-08-29T09:38:03.963Z,34.77
2022-08-29T09:40:44.440Z,34.27
2022-08-29T09:43:18.076Z,34.08
2022-08-29T09:46:01.307Z,34.56
2022-08-29T09:48:35.347Z,34.29
2022-08-29T09:51:15.892Z,34.18
2022-08-29T09:53:45.933Z,34.23
2022-08-29T09:56:18.586Z,34.03
2022-08-29T09:58:48.750Z,34.18
2022-08-29T10:01:24.814Z,33.88
2022-08-29T10:03:59.422Z,33.59
2022-08-29T10:06:30.102Z,33.45
2022-08-29T10:09:04.122Z,33.21
2022-08-29T10:11:36.060Z,33.57
2022-08-29T10:14:06.941Z,32.77
2022-08-29T10:16:45.099Z,33.18
2022-08-29T10:19:15.664Z,33.09
2022-08-29T10:21:48.387Z,32.83
2022-08-29T10:24:22.809Z,32.16
2022-08-29T10:26:55.403Z,32.09
2022-08-29T10:29:31.576Z,32.04
2022-08-29T10:32:04.813Z,31.56
2022-08-29T10:34:39.355Z,31.38
2022-08-29T10:37:12.215Z,31.67
2022-08-29T10:39:44.532Z,31.82
2022-08-29T10:42:16.331Z,31.03
2022-08-29T10:44:51.030Z,31.16
2022-08-29T10:47:24.143Z,31.19
2022-08-29T10:49:59.389Z,31.28
2022-08-29T10:52:30.154Z,31.31
2022-08-29T10:55:04.346Z,31.51
2022-08-29T10:57:39.284Z,31.65
2022-08-29T11:00:10.607Z,30.90
2022-08-29T11:02:41.075Z,31.19
2022-08-29T11:05:15.285Z,31.34
2022-08-29T11:07:47.921Z,31.10
2022-08-29T11:10:19.294Z,30.84
2022-08-29T11:12:52.597Z,30.62
2022-08-29T11:15:23.465Z,30.66
2022-08-29T11:17:55.413Z,30.79
2022-08-29T11:20:27.141Z,30.56
2022-08-29T11:22:58.384Z,30.33
2022-08-29T11:25:28.934Z,30.32
2022-08-29T11:28:04.715Z,29.82
2022-08-29T11:30:40.983Z,29.18
2022-08-29T11:33:15.497Z,29.52
2022-08-29T11:35:47.705Z,29.24
2022-08-29T11:38:31.101Z,29.33
2022-08-29T11:43:57.338Z,28.75
2022-08-29T11:46:37.771Z,27.56
2022-08-29T11:49:26.024Z,27.17
2022-08-29T11:51:56.200Z,27.48
2022-08-29T11:54:43.380Z,27.52
2022-08-29T11:57:34.334Z,27.58
2022-08-29T12:00:05.905Z,26.97
2022-08-29T12:02:44.579Z,27.37
2022-08-29T12:05:31.681Z,27.06
2022-08-29T12:08:14.364Z,27.11
2022-08-29T12:10:53.779Z,26.78
2022-08-29T12:13:37.266Z,26.81
2022-08-29T12:16:09.636Z,26.37
2022-08-29T12:18:55.888Z,26.31
2022-08-29T12:21:49.120Z,26.56
2022-08-29T12:24:32.928Z,26.44
2022-08-29T12:27:04.315Z,26.21
2022-08-29T12:29:43.664Z,25.91
2022-08-29T12:32:31.089Z,25.57
2022-08-29T12:35:18.571Z,25.32
2022-08-29T12:37:53.836Z,25.30
2022-08-29T12:40:29.193Z,25.47
2022-08-29T12:43:05.054Z,25.00
2022-08-29T12:45:35.145Z,25.41
2022-08-29T12:48:06.619Z,25.68
2022-08-29T12:50:37.238Z,25.41
2022-08-29T12:53:07.824Z,25.82
2022-08-29T12:55:40.158Z,25.30
2022-08-29T12:58:10.286Z,25.15
2022-08-29T13:00:40.133Z,25.41
2022-08-29T13:03:15.545Z,25.60
2022-08-29T13:05:46.119Z,25.08
2022-08-29T13:08:16.798Z,24.95
2022-08-29T13:10:54.808Z,25.10
2022-08-29T13:13:25.170Z,25.30
2022-08-29T13:15:56.200Z,24.91
2022-08-29T13:18:26.220Z,25.36
2022-08-29T13:21:06.167Z,25.41
2022-08-29T13:23:36.467Z,25.29
2022-08-29T13:26:09.245Z,24.93
2022-08-29T13:28:40.753Z,24.93
2022-08-29T13:31:30.666Z,25.13
2022-08-29T13:34:20.828Z,24.84
2022-08-29T13:36:54.973Z,24.62
2022-08-29T13:39:29.674Z,24.59
2022-08-29T13:42:14.010Z,24.78
2022-08-29T13:44:55.050Z,24.13
2022-08-29T13:47:25.256Z,23.94
2022-08-29T13:49:57.929Z,24.37
2022-08-29T13:52:31.717Z,24.15
2022-08-29T13:55:03.297Z,24.52
2022-08-29T13:57:35.051Z,24.62
2022-08-29T14:00:06.644Z,24.65
2022-08-29T14:02:39.297Z,24.65
2022-08-29T14:05:13.752Z,24.70
2022-08-29T14:07:44.140Z,24.75
2022-08-29T14:10:14.520Z,25.19
2022-08-29T14:12:44.481Z,25.64
2022-08-29T14:15:17.906Z,25.81
2022-08-29T14:17:48.733Z,25.90
2022-08-29T14:20:19.351Z,25.82
2022-08-29T14:22:49.366Z,25.72
2022-08-29T14:25:19.947Z,25.73
2022-08-29T14:27:50.230Z,25.64
2022-08-29T14:30:20.617Z,25.73
2022-08-29T14:32:50.590Z,25.95
2022-08-29T14:35:26.412Z,26.04
2022-08-29T14:38:01.587Z,26.02
2022-08-29T14:40:32.478Z,26.21
2022-08-29T14:43:02.649Z,26.36
2022-08-29T14:45:32.475Z,26.52
2022-08-29T14:48:02.328Z,26.80
2022-08-29T14:50:32.404Z,27.03
2022-08-29T14:53:02.422Z,27.36
2022-08-29T14:55:33.552Z,27.58
2022-08-29T14:58:03.986Z,27.61
2022-08-29T15:00:34.373Z,27.71
2022-08-29T15:03:04.257Z,27.71
2022-08-29T15:05:34.376Z,27.72
2022-08-29T15:08:06.537Z,27.86
2022-08-29T15:10:36.812Z,28.16
2022-08-29T15:13:07.658Z,28.20
2022-08-29T15:15:37.877Z,28.36
2022-08-29T15:18:07.855Z,28.57
2022-08-29T15:20:40.125Z,28.67
2022-08-29T15:23:13.335Z,28.77
2022-08-29T15:25:45.163Z,28.86
2022-08-29T15:28:22.153Z,28.84
2022-08-29T15:30:52.032Z,28.79
2022-08-29T15:33:21.909Z,28.79
2022-08-29T15:35:51.745Z,28.92
2022-08-29T15:38:21.706Z,28.89
2022-08-29T15:40:53.144Z,29.07
2022-08-29T15:43:23.156Z,29.26
2022-08-29T15:45:57.267Z,29.60
2022-08-29T15:48:29.114Z,29.99
2022-08-29T15:50:59.082Z,30.56
2022-08-29T15:53:28.984Z,30.80
2022-08-29T15:55:58.754Z,31.20
2022-08-29T15:58:29.289Z,30.91
2022-08-29T16:00:59.735Z,31.11
2022-08-29T16:03:30.123Z,31.05
2022-08-29T16:06:00.389Z,31.09
2022-08-29T16:08:30.211Z,31.25
2022-08-29T16:11:00.443Z,31.33
2022-08-29T16:13:30.275Z,31.36
2022-08-29T16:16:00.317Z,31.34
2022-08-29T16:18:30.265Z,31.63
2022-08-29T16:21:00.174Z,31.58
2022-08-29T16:23:30.139Z,31.87
2022-08-29T16:26:00.247Z,31.68
2022-08-29T16:28:31.966Z,31.92
2022-08-29T16:31:01.865Z,32.71
2022-08-29T16:33:31.898Z,32.73
2022-08-29T16:36:01.806Z,32.69
2022-08-29T16:38:31.737Z,32.96
2022-08-29T16:41:02.491Z,32.99
2022-08-29T16:43:32.420Z,33.11
2022-08-29T16:46:02.209Z,33.35
2022-08-29T16:48:32.195Z,33.47
2022-08-29T16:51:02.557Z,33.84
2022-08-29T16:53:35.497Z,33.82
2022-08-29T16:56:09.284Z,34.07
2022-08-29T16:58:56.763Z,34.18
2022-08-29T17:01:26.782Z,34.35
2022-08-29T17:03:57.114Z,34.45
2022-08-29T17:06:28.185Z,34.74
2022-08-29T17:08:56.946Z,34.85
2022-08-29T17:11:25.789Z,34.92
2022-08-29T17:13:54.443Z,34.87
2022-08-29T17:16:23.272Z,34.71
2022-08-29T17:18:53.388Z,34.66
2022-08-29T17:21:23.196Z,34.73
2022-08-29T17:23:52.992Z,34.70
2022-08-29T17:26:22.945Z,34.71
2022-08-29T17:28:52.813Z,34.67
2022-08-29T17:31:23.233Z,34.69
2022-08-29T17:33:53.043Z,34.90
2022-08-29T17:36:23.439Z,34.93
2022-08-29T17:38:53.321Z,35.19
2022-08-29T17:41:23.538Z,35.23
2022-08-29T17:43:53.561Z,35.23
2022-08-29T17:46:23.575Z,35.41
2022-08-29T17:48:53.482Z,35.34
2022-08-29T17:51:23.265Z,35.28
2022-08-29T17:53:54.151Z,35.34
2022-08-29T17:56:30.878Z,35.71
2022-08-29T17:59:02.775Z,35.89
2022-08-29T18:01:36.028Z,35.98
2022-08-29T18:04:06.029Z,36.12
2022-08-29T18:06:35.987Z,36.29
2022-08-29T18:09:06.213Z,36.41
2022-08-29T18:11:36.253Z,36.41
2022-08-29T18:14:06.014Z,36.43
2022-08-29T18:16:36.292Z,36.78
2022-08-29T18:19:06.132Z,36.79
2022-08-29T18:21:36.219Z,36.83
2022-08-29T18:24:06.802Z,36.91
2022-08-29T18:26:36.640Z,37.13
2022-08-29T18:29:06.771Z,37.41
2022-08-29T18:31:36.864Z,37.45
2022-08-29T18:34:06.870Z,37.52
2022-08-29T18:36:37.639Z,37.78
2022-08-29T18:39:08.201Z,38.21
2022-08-29T18:41:38.100Z,38.19
2022-08-29T18:44:07.968Z,38.75
2022-08-29T18:46:41.231Z,39.86
2022-08-29T18:49:11.703Z,40.25
2022-08-29T18:51:41.804Z,40.11
2022-08-29T18:54:14.241Z,40.07
2022-08-29T18:56:47.469Z,40.22
2022-08-29T18:59:17.456Z,40.02
2022-08-29T19:01:47.571Z,40.00
2022-08-29T19:04:20.279Z,40.13
2022-08-29T19:06:52.061Z,39.70
2022-08-29T19:09:22.073Z,39.52
2022-08-29T19:11:52.545Z,39.48
2022-08-29T19:14:22.519Z,39.24
2022-08-29T19:16:52.613Z,39.17
2022-08-29T19:19:22.550Z,39.12
2022-08-29T19:21:52.941Z,39.03
2022-08-29T19:24:22.828Z,39.69
2022-08-29T19:26:52.912Z,39.95
2022-08-29T19:29:23.326Z,40.12
2022-08-29T19:31:53.401Z,40.07
2022-08-29T19:34:23.238Z,40.33
2022-08-29T19:36:53.024Z,40.60
2022-08-29T19:39:23.354Z,40.63
2022-08-29T19:41:53.227Z,40.66
2022-08-29T19:44:23.106Z,40.94
2022-08-29T19:46:53.117Z,41.00
2022-08-29T19:49:23.017Z,41.10
2022-08-29T19:51:53.136Z,42.18
2022-08-29T19:54:23.158Z,43.22
2022-08-29T19:56:53.172Z,45.78
2022-08-29T19:59:23.266Z,45.01
2022-08-29T20:01:53.388Z,46.57
2022-08-29T20:04:23.509Z,45.82
2022-08-29T20:06:57.289Z,46.23
2022-08-29T20:09:30.057Z,46.35
2022-08-29T20:12:00.495Z,45.94
2022-08-29T20:14:30.505Z,46.99
2022-08-29T20:17:02.793Z,46.61
2022-08-29T20:19:34.922Z,47.41
2022-08-29T20:22:04.969Z,47.39
2022-08-29T20:24:34.935Z,48.05
2022-08-29T20:27:05.733Z,48.91
2022-08-29T20:32:10.443Z,49.96
2022-08-29T20:34:40.577Z,51.67
2022-08-29T20:37:10.703Z,51.96
2022-08-29T20:39:41.593Z,54.20
2022-08-29T20:42:11.500Z,53.92
2022-08-29T20:44:43.815Z,54.05
2022-08-29T20:47:15.242Z,53.85
2022-08-29T20:49:45.336Z,53.88
2022-08-29T20:52:16.726Z,53.87
2022-08-29T20:54:46.498Z,57.00
2022-08-29T20:57:16.537Z,56.40
2022-08-29T20:59:46.713Z,55.89
2022-08-29T21:02:16.695Z,55.79
2022-08-29T21:05:04.146Z,56.31
2022-08-29T21:07:34.022Z,57.69
2022-08-29T21:10:03.946Z,56.83
2022-08-29T21:12:33.922Z,57.11
2022-08-29T21:15:04.043Z,57.13
2022-08-29T21:17:34.045Z,57.15
2022-08-29T21:20:04.595Z,57.23
2022-08-29T21:22:34.695Z,57.20
2022-08-29T21:25:04.843Z,57.21
2022-08-29T21:27:34.626Z,57.25
2022-08-29T21:30:04.575Z,57.05
2022-08-29T21:32:35.535Z,56.41
2022-08-29T21:35:05.900Z,56.11
2022-08-29T21:37:36.010Z,56.23
2022-08-29T21:40:06.960Z,56.00
2022-08-29T21:42:37.685Z,55.85
2022-08-29T21:45:08.483Z,55.78
2022-08-29T21:47:38.378Z,55.69
2022-08-29T21:50:09.118Z,55.88
2022-08-29T21:52:38.967Z,56.25
2022-08-29T21:55:10.029Z,56.25
2022-08-29T21:57:58.030Z,57.01
2022-08-29T22:00:28.487Z,57.04
2022-08-29T22:02:58.413Z,56.98
2022-08-29T22:05:28.481Z,57.25
2022-08-29T22:08:01.281Z,57.61
2022-08-29T22:10:31.753Z,57.64
2022-08-29T22:13:01.606Z,58.22
2022-08-29T22:15:48.945Z,59.03
2022-08-29T22:18:19.393Z,59.06
2022-08-29T22:20:52.893Z,58.62
2022-08-29T22:23:26.295Z,58.88
2022-08-29T22:25:56.640Z,59.71
2022-08-29T22:28:26.521Z,60.06
2022-08-29T22:30:56.391Z,60.29
2022-08-29T22:33:26.194Z,60.44
2022-08-29T22:35:56.073Z,59.81
2022-08-29T22:38:26.160Z,59.19
2022-08-29T22:40:56.078Z,59.83
2022-08-29T22:43:25.939Z,60.46
2022-08-29T22:45:55.734Z,61.06
2022-08-29T22:48:25.615Z,61.43
2022-08-29T22:50:58.444Z,61.86
2022-08-29T22:53:28.646Z,61.99
2022-08-29T22:55:58.651Z,61.91
2022-08-29T22:58:29.384Z,61.95
2022-08-29T23:00:59.323Z,61.94
2022-08-29T23:03:29.251Z,61.88
2022-08-29T23:05:59.185Z,61.71
2022-08-29T23:08:29.179Z,61.85
2022-08-29T23:10:59.087Z,61.92
2022-08-29T23:13:29.127Z,61.82
2022-08-29T23:16:01.088Z,61.74
2022-08-29T23:18:30.987Z,61.91
2022-08-29T23:21:00.849Z,61.99
2022-08-29T23:23:30.813Z,61.64
2022-08-29T23:26:00.643Z,61.79
2022-08-29T23:28:30.423Z,61.42
2022-08-29T23:31:00.443Z,61.53
2022-08-29T23:33:30.357Z,61.67
2022-08-29T23:36:00.233Z,61.75
2022-08-29T23:38:29.999Z,62.12
2022-08-29T23:40:59.818Z,62.50
2022-08-29T23:43:29.768Z,62.88
2022-08-29T23:46:06.806Z,63.25
2022-08-29T23:48:36.797Z,63.33
2022-08-29T23:51:07.741Z,63.32
2022-08-29T23:53:37.592Z,63.40
2022-08-29T23:56:10.697Z,63.05
2022-08-29T23:58:40.571Z,62.71
